sensor_id;sensor_type;location;lat;lon;timestamp;P1;durP1;ratioP1;P2;durP2;ratioP2
13327;SDS011;6733;51.044;3.746;2023-07-24T00:00:31;2.53;;;1.93;;
13327;SDS011;6733;51.044;3.746;2023-07-24T00:02:59;2.17;;;1.97;;
13327;SDS011;6733;51.044;3.746;2023-07-24T00:05:25;2.33;;;2.00;;
13327;SDS011;6733;51.044;3.746;2023-07-24T00:07:51;3.47;;;2.20;;
13327;SDS011;6733;51.044;3.746;2023-07-24T00:10:17;2.30;;;2.10;;
13327;SDS011;6733;51.044;3.746;2023-07-24T00:12:43;1.90;;;1.80;;
13327;SDS011;6733;51.044;3.746;2023-07-24T00:15:10;2.83;;;2.47;;
13327;SDS011;6733;51.044;3.746;2023-07-24T00:17:36;2.40;;;1.90;;
13327;SDS011;6733;51.044;3.746;2023-07-24T00:20:02;2.60;;;2.13;;
13327;SDS011;6733;51.044;3.746;2023-07-24T00:22:28;2.30;;;2.10;;
13327;SDS011;6733;51.044;3.746;2023-07-24T00:24:54;2.30;;;2.10;;
13327;SDS011;6733;51.044;3.746;2023-07-24T00:27:21;2.20;;;2.00;;
13327;SDS011;6733;51.044;3.746;2023-07-24T00:29:47;2.33;;;2.13;;
13327;SDS011;6733;51.044;3.746;2023-07-24T00:32:13;2.40;;;2.20;;
13327;SDS011;6733;51.044;3.746;2023-07-24T00:34:39;2.37;;;2.00;;
13327;SDS011;6733;51.044;3.746;2023-07-24T00:37:05;4.13;;;2.10;;
13327;SDS011;6733;51.044;3.746;2023-07-24T00:39:32;2.87;;;2.50;;
13327;SDS011;6733;51.044;3.746;2023-07-24T00:41:58;4.03;;;2.20;;
13327;SDS011;6733;51.044;3.746;2023-07-24T00:44:24;2.30;;;2.10;;
13327;SDS011;6733;51.044;3.746;2023-07-24T00:46:50;2.40;;;2.20;;
13327;SDS011;6733;51.044;3.746;2023-07-24T00:49:17;2.23;;;2.03;;
13327;SDS011;6733;51.044;3.746;2023-07-24T00:51:43;2.20;;;2.00;;
13327;SDS011;6733;51.044;3.746;2023-07-24T00:54:10;3.47;;;2.20;;
13327;SDS011;6733;51.044;3.746;2023-07-24T00:56:38;3.00;;;2.70;;
13327;SDS011;6733;51.044;3.746;2023-07-24T00:59:05;3.10;;;2.23;;
13327;SDS011;6733;51.044;3.746;2023-07-24T01:01:31;3.47;;;2.50;;
13327;SDS011;6733;51.044;3.746;2023-07-24T01:03:58;2.63;;;2.43;;
13327;SDS011;6733;51.044;3.746;2023-07-24T01:06:26;2.80;;;2.60;;
13327;SDS011;6733;51.044;3.746;2023-07-24T01:08:52;3.97;;;2.80;;
13327;SDS011;6733;51.044;3.746;2023-07-24T01:11:19;3.00;;;2.17;;
13327;SDS011;6733;51.044;3.746;2023-07-24T01:13:49;2.87;;;2.67;;
13327;SDS011;6733;51.044;3.746;2023-07-24T01:16:23;2.97;;;2.70;;
13327;SDS011;6733;51.044;3.746;2023-07-24T01:18:55;4.07;;;2.60;;
13327;SDS011;6733;51.044;3.746;2023-07-24T01:21:25;3.73;;;2.90;;
13327;SDS011;6733;51.044;3.746;2023-07-24T01:24:19;3.70;;;2.90;;
13327;SDS011;6733;51.044;3.746;2023-07-24T01:26:55;3.60;;;3.00;;
13327;SDS011;6733;51.044;3.746;2023-07-24T01:29:22;3.23;;;2.60;;
13327;SDS011;6733;51.044;3.746;2023-07-24T01:31:48;3.07;;;2.63;;
13327;SDS011;6733;51.044;3.746;2023-07-24T01:34:14;3.47;;;2.87;;
13327;SDS011;6733;51.044;3.746;2023-07-24T01:36:41;3.93;;;2.97;;
13327;SDS011;6733;51.044;3.746;2023-07-24T01:39:07;4.13;;;2.87;;
13327;SDS011;6733;51.044;3.746;2023-07-24T01:41:35;3.27;;;2.97;;
13327;SDS011;6733;51.044;3.746;2023-07-24T01:44:01;4.10;;;3.10;;
13327;SDS011;6733;51.044;3.746;2023-07-24T01:46:27;3.10;;;2.80;;
13327;SDS011;6733;51.044;3.746;2023-07-24T01:48:53;3.33;;;2.80;;
13327;SDS011;6733;51.044;3.746;2023-07-24T01:51:20;3.40;;;3.10;;
13327;SDS011;6733;51.044;3.746;2023-07-24T01:53:46;4.90;;;3.10;;
13327;SDS011;6733;51.044;3.746;2023-07-24T01:56:12;3.40;;;2.83;;
13327;SDS011;6733;51.044;3.746;2023-07-24T01:58:38;3.47;;;3.17;;
13327;SDS011;6733;51.044;3.746;2023-07-24T02:01:04;3.93;;;3.10;;
13327;SDS011;6733;51.044;3.746;2023-07-24T02:03:30;4.77;;;3.03;;
13327;SDS011;6733;51.044;3.746;2023-07-24T02:05:57;4.07;;;3.17;;
13327;SDS011;6733;51.044;3.746;2023-07-24T02:08:23;5.40;;;3.13;;
13327;SDS011;6733;51.044;3.746;2023-07-24T02:10:49;5.50;;;3.80;;
13327;SDS011;6733;51.044;3.746;2023-07-24T02:13:16;3.40;;;3.10;;
13327;SDS011;6733;51.044;3.746;2023-07-24T02:15:42;3.53;;;3.20;;
13327;SDS011;6733;51.044;3.746;2023-07-24T02:18:08;3.33;;;3.03;;
13327;SDS011;6733;51.044;3.746;2023-07-24T02:20:34;3.77;;;3.40;;
13327;SDS011;6733;51.044;3.746;2023-07-24T02:23:01;4.07;;;3.47;;
13327;SDS011;6733;51.044;3.746;2023-07-24T02:25:27;4.73;;;3.47;;
13327;SDS011;6733;51.044;3.746;2023-07-24T02:27:53;4.33;;;3.37;;
13327;SDS011;6733;51.044;3.746;2023-07-24T02:30:19;4.30;;;3.10;;
13327;SDS011;6733;51.044;3.746;2023-07-24T02:32:45;3.70;;;3.30;;
13327;SDS011;6733;51.044;3.746;2023-07-24T02:35:39;3.70;;;3.40;;
13327;SDS011;6733;51.044;3.746;2023-07-24T02:38:31;4.60;;;3.40;;
13327;SDS011;6733;51.044;3.746;2023-07-24T02:41:22;4.43;;;3.70;;
13327;SDS011;6733;51.044;3.746;2023-07-24T02:44:13;9.10;;;4.17;;
13327;SDS011;6733;51.044;3.746;2023-07-24T02:47:04;3.97;;;3.40;;
13327;SDS011;6733;51.044;3.746;2023-07-24T02:49:55;5.00;;;3.20;;
13327;SDS011;6733;51.044;3.746;2023-07-24T02:52:46;3.40;;;3.00;;
13327;SDS011;6733;51.044;3.746;2023-07-24T02:55:41;3.23;;;2.70;;
13327;SDS011;6733;51.044;3.746;2023-07-24T02:58:08;3.40;;;3.07;;
13327;SDS011;6733;51.044;3.746;2023-07-24T03:00:34;3.27;;;2.87;;
13327;SDS011;6733;51.044;3.746;2023-07-24T03:03:00;3.30;;;3.00;;
13327;SDS011;6733;51.044;3.746;2023-07-24T03:05:26;3.33;;;3.03;;
13327;SDS011;6733;51.044;3.746;2023-07-24T03:07:52;3.27;;;2.97;;
13327;SDS011;6733;51.044;3.746;2023-07-24T03:10:18;3.30;;;3.00;;
13327;SDS011;6733;51.044;3.746;2023-07-24T03:12:45;4.27;;;2.90;;
13327;SDS011;6733;51.044;3.746;2023-07-24T03:15:11;4.13;;;3.13;;
13327;SDS011;6733;51.044;3.746;2023-07-24T03:17:37;3.57;;;3.20;;
13327;SDS011;6733;51.044;3.746;2023-07-24T03:20:36;3.53;;;2.70;;
13327;SDS011;6733;51.044;3.746;2023-07-24T03:22:55;2.90;;;2.60;;
13327;SDS011;6733;51.044;3.746;2023-07-24T03:25:22;3.50;;;3.20;;
13327;SDS011;6733;51.044;3.746;2023-07-24T03:27:48;3.13;;;2.80;;
13327;SDS011;6733;51.044;3.746;2023-07-24T03:30:14;3.60;;;3.30;;
13327;SDS011;6733;51.044;3.746;2023-07-24T03:32:40;3.83;;;3.43;;
13327;SDS011;6733;51.044;3.746;2023-07-24T03:35:06;3.37;;;3.07;;
13327;SDS011;6733;51.044;3.746;2023-07-24T03:37:36;3.33;;;3.03;;
13327;SDS011;6733;51.044;3.746;2023-07-24T03:40:02;3.20;;;2.87;;
13327;SDS011;6733;51.044;3.746;2023-07-24T03:42:29;3.30;;;3.00;;
13327;SDS011;6733;51.044;3.746;2023-07-24T03:44:56;3.70;;;3.40;;
13327;SDS011;6733;51.044;3.746;2023-07-24T03:47:23;4.37;;;3.10;;
13327;SDS011;6733;51.044;3.746;2023-07-24T03:49:50;4.20;;;3.20;;
13327;SDS011;6733;51.044;3.746;2023-07-24T03:52:16;3.20;;;2.90;;
13327;SDS011;6733;51.044;3.746;2023-07-24T03:54:42;3.07;;;2.87;;
13327;SDS011;6733;51.044;3.746;2023-07-24T03:57:08;3.70;;;3.10;;
13327;SDS011;6733;51.044;3.746;2023-07-24T03:59:34;3.40;;;3.10;;
13327;SDS011;6733;51.044;3.746;2023-07-24T04:02:01;4.03;;;3.60;;
13327;SDS011;6733;51.044;3.746;2023-07-24T04:04:27;3.50;;;3.20;;
13327;SDS011;6733;51.044;3.746;2023-07-24T04:06:53;3.30;;;3.00;;
13327;SDS011;6733;51.044;3.746;2023-07-24T04:09:19;3.60;;;3.30;;
13327;SDS011;6733;51.044;3.746;2023-07-24T04:11:45;3.83;;;3.50;;
13327;SDS011;6733;51.044;3.746;2023-07-24T04:14:12;3.50;;;3.20;;
13327;SDS011;6733;51.044;3.746;2023-07-24T04:16:38;4.63;;;3.23;;
13327;SDS011;6733;51.044;3.746;2023-07-24T04:19:04;3.70;;;3.40;;
13327;SDS011;6733;51.044;3.746;2023-07-24T04:21:31;3.43;;;3.20;;
13327;SDS011;6733;51.044;3.746;2023-07-24T04:23:57;3.43;;;3.13;;
13327;SDS011;6733;51.044;3.746;2023-07-24T04:26:23;4.57;;;3.00;;
13327;SDS011;6733;51.044;3.746;2023-07-24T04:28:49;3.67;;;3.37;;
13327;SDS011;6733;51.044;3.746;2023-07-24T04:31:15;3.77;;;3.20;;
13327;SDS011;6733;51.044;3.746;2023-07-24T04:33:41;3.73;;;3.23;;
13327;SDS011;6733;51.044;3.746;2023-07-24T04:36:07;4.97;;;3.30;;
13327;SDS011;6733;51.044;3.746;2023-07-24T04:38:33;3.20;;;2.93;;
13327;SDS011;6733;51.044;3.746;2023-07-24T04:41:00;4.90;;;3.40;;
13327;SDS011;6733;51.044;3.746;2023-07-24T04:43:28;3.50;;;3.20;;
13327;SDS011;6733;51.044;3.746;2023-07-24T04:45:54;5.10;;;3.60;;
13327;SDS011;6733;51.044;3.746;2023-07-24T04:48:20;3.50;;;3.20;;
13327;SDS011;6733;51.044;3.746;2023-07-24T04:50:52;3.87;;;3.03;;
13327;SDS011;6733;51.044;3.746;2023-07-24T04:53:19;3.47;;;3.17;;
13327;SDS011;6733;51.044;3.746;2023-07-24T04:55:46;4.17;;;3.27;;
13327;SDS011;6733;51.044;3.746;2023-07-24T04:58:12;3.93;;;3.37;;
13327;SDS011;6733;51.044;3.746;2023-07-24T05:00:38;3.73;;;3.37;;
13327;SDS011;6733;51.044;3.746;2023-07-24T05:03:04;3.50;;;3.20;;
13327;SDS011;6733;51.044;3.746;2023-07-24T05:05:32;4.30;;;3.50;;
13327;SDS011;6733;51.044;3.746;2023-07-24T05:07:58;4.10;;;3.50;;
13327;SDS011;6733;51.044;3.746;2023-07-24T05:10:24;6.30;;;3.60;;
13327;SDS011;6733;51.044;3.746;2023-07-24T05:12:50;3.70;;;3.33;;
13327;SDS011;6733;51.044;3.746;2023-07-24T05:15:16;3.93;;;3.30;;
13327;SDS011;6733;51.044;3.746;2023-07-24T05:17:43;4.20;;;3.80;;
13327;SDS011;6733;51.044;3.746;2023-07-24T05:20:09;3.93;;;3.50;;
13327;SDS011;6733;51.044;3.746;2023-07-24T05:22:36;5.13;;;3.33;;
13327;SDS011;6733;51.044;3.746;2023-07-24T05:25:02;3.70;;;3.30;;
13327;SDS011;6733;51.044;3.746;2023-07-24T05:27:28;4.60;;;3.60;;
13327;SDS011;6733;51.044;3.746;2023-07-24T05:29:55;4.07;;;3.60;;
13327;SDS011;6733;51.044;3.746;2023-07-24T05:32:21;4.30;;;3.63;;
13327;SDS011;6733;51.044;3.746;2023-07-24T05:34:47;6.43;;;3.93;;
13327;SDS011;6733;51.044;3.746;2023-07-24T05:37:13;3.70;;;3.40;;
13327;SDS011;6733;51.044;3.746;2023-07-24T05:39:39;4.10;;;3.70;;
13327;SDS011;6733;51.044;3.746;2023-07-24T05:42:05;4.20;;;3.80;;
13327;SDS011;6733;51.044;3.746;2023-07-24T05:44:32;4.63;;;3.57;;
13327;SDS011;6733;51.044;3.746;2023-07-24T05:46:58;4.60;;;3.60;;
13327;SDS011;6733;51.044;3.746;2023-07-24T05:49:24;4.83;;;4.33;;
13327;SDS011;6733;51.044;3.746;2023-07-24T05:51:51;5.37;;;3.50;;
13327;SDS011;6733;51.044;3.746;2023-07-24T05:54:19;4.03;;;3.63;;
13327;SDS011;6733;51.044;3.746;2023-07-24T05:56:45;5.37;;;3.90;;
13327;SDS011;6733;51.044;3.746;2023-07-24T05:59:11;5.07;;;4.10;;
13327;SDS011;6733;51.044;3.746;2023-07-24T06:01:38;4.60;;;3.90;;
13327;SDS011;6733;51.044;3.746;2023-07-24T06:04:04;4.03;;;3.63;;
13327;SDS011;6733;51.044;3.746;2023-07-24T06:06:32;4.83;;;3.83;;
13327;SDS011;6733;51.044;3.746;2023-07-24T06:08:59;5.70;;;4.00;;
13327;SDS011;6733;51.044;3.746;2023-07-24T06:11:25;3.77;;;3.37;;
13327;SDS011;6733;51.044;3.746;2023-07-24T06:13:52;4.73;;;3.80;;
13327;SDS011;6733;51.044;3.746;2023-07-24T06:16:18;5.30;;;3.90;;
13327;SDS011;6733;51.044;3.746;2023-07-24T06:18:44;5.57;;;3.57;;
13327;SDS011;6733;51.044;3.746;2023-07-24T06:21:10;4.33;;;3.93;;
13327;SDS011;6733;51.044;3.746;2023-07-24T06:23:37;4.37;;;3.97;;
13327;SDS011;6733;51.044;3.746;2023-07-24T06:26:03;4.73;;;3.87;;
13327;SDS011;6733;51.044;3.746;2023-07-24T06:28:29;5.87;;;4.47;;
13327;SDS011;6733;51.044;3.746;2023-07-24T06:30:56;4.97;;;4.47;;
13327;SDS011;6733;51.044;3.746;2023-07-24T06:33:23;6.43;;;4.00;;
13327;SDS011;6733;51.044;3.746;2023-07-24T06:35:49;5.13;;;4.03;;
13327;SDS011;6733;51.044;3.746;2023-07-24T06:38:19;6.53;;;4.50;;
13327;SDS011;6733;51.044;3.746;2023-07-24T06:40:47;4.40;;;4.00;;
13327;SDS011;6733;51.044;3.746;2023-07-24T06:43:13;4.50;;;4.10;;
13327;SDS011;6733;51.044;3.746;2023-07-24T06:45:39;5.00;;;4.40;;
13327;SDS011;6733;51.044;3.746;2023-07-24T06:48:05;4.50;;;4.03;;
13327;SDS011;6733;51.044;3.746;2023-07-24T06:50:31;5.73;;;4.60;;
13327;SDS011;6733;51.044;3.746;2023-07-24T06:52:58;5.40;;;4.90;;
13327;SDS011;6733;51.044;3.746;2023-07-24T06:55:24;7.57;;;4.23;;
13327;SDS011;6733;51.044;3.746;2023-07-24T06:57:50;7.20;;;4.83;;
13327;SDS011;6733;51.044;3.746;2023-07-24T07:00:16;4.80;;;4.30;;
13327;SDS011;6733;51.044;3.746;2023-07-24T07:02:43;4.67;;;4.27;;
13327;SDS011;6733;51.044;3.746;2023-07-24T07:05:09;4.77;;;4.37;;
13327;SDS011;6733;51.044;3.746;2023-07-24T07:07:35;4.23;;;3.83;;
13327;SDS011;6733;51.044;3.746;2023-07-24T07:10:01;5.07;;;3.80;;
13327;SDS011;6733;51.044;3.746;2023-07-24T07:12:28;4.20;;;3.80;;
13327;SDS011;6733;51.044;3.746;2023-07-24T07:14:54;3.83;;;3.47;;
13327;SDS011;6733;51.044;3.746;2023-07-24T07:17:20;3.60;;;3.30;;
13327;SDS011;6733;51.044;3.746;2023-07-24T07:19:46;3.33;;;3.03;;
13327;SDS011;6733;51.044;3.746;2023-07-24T07:22:12;3.57;;;3.27;;
13327;SDS011;6733;51.044;3.746;2023-07-24T07:24:38;3.90;;;3.30;;
13327;SDS011;6733;51.044;3.746;2023-07-24T07:27:05;3.60;;;3.30;;
13327;SDS011;6733;51.044;3.746;2023-07-24T07:29:31;2.87;;;2.63;;
13327;SDS011;6733;51.044;3.746;2023-07-24T07:31:57;3.90;;;3.50;;
13327;SDS011;6733;51.044;3.746;2023-07-24T07:34:23;3.50;;;2.83;;
13327;SDS011;6733;51.044;3.746;2023-07-24T07:36:49;5.03;;;3.37;;
13327;SDS011;6733;51.044;3.746;2023-07-24T07:39:16;6.07;;;4.33;;
13327;SDS011;6733;51.044;3.746;2023-07-24T07:41:42;2.90;;;2.63;;
13327;SDS011;6733;51.044;3.746;2023-07-24T07:44:08;3.43;;;3.13;;
13327;SDS011;6733;51.044;3.746;2023-07-24T07:46:34;3.13;;;2.53;;
13327;SDS011;6733;51.044;3.746;2023-07-24T07:49:00;3.27;;;2.97;;
13327;SDS011;6733;51.044;3.746;2023-07-24T07:51:27;3.03;;;2.73;;
13327;SDS011;6733;51.044;3.746;2023-07-24T07:53:53;4.70;;;3.03;;
13327;SDS011;6733;51.044;3.746;2023-07-24T07:56:22;6.23;;;2.60;;
13327;SDS011;6733;51.044;3.746;2023-07-24T07:58:48;6.20;;;3.10;;
13327;SDS011;6733;51.044;3.746;2023-07-24T08:01:14;3.07;;;2.63;;
13327;SDS011;6733;51.044;3.746;2023-07-24T08:03:41;4.50;;;3.17;;
13327;SDS011;6733;51.044;3.746;2023-07-24T08:06:07;3.10;;;2.80;;
13327;SDS011;6733;51.044;3.746;2023-07-24T08:08:33;4.60;;;2.90;;
13327;SDS011;6733;51.044;3.746;2023-07-24T08:11:03;3.97;;;3.23;;
13327;SDS011;6733;51.044;3.746;2023-07-24T08:13:33;4.33;;;2.87;;
13327;SDS011;6733;51.044;3.746;2023-07-24T08:16:00;3.23;;;2.93;;
13327;SDS011;6733;51.044;3.746;2023-07-24T08:18:31;3.17;;;2.87;;
13327;SDS011;6733;51.044;3.746;2023-07-24T08:20:57;3.73;;;2.97;;
13327;SDS011;6733;51.044;3.746;2023-07-24T08:23:23;3.27;;;2.90;;
13327;SDS011;6733;51.044;3.746;2023-07-24T08:25:53;3.43;;;2.90;;
13327;SDS011;6733;51.044;3.746;2023-07-24T08:28:21;3.80;;;3.37;;
13327;SDS011;6733;51.044;3.746;2023-07-24T08:30:57;3.53;;;3.23;;
13327;SDS011;6733;51.044;3.746;2023-07-24T08:33:24;3.87;;;3.43;;
13327;SDS011;6733;51.044;3.746;2023-07-24T08:35:58;3.07;;;2.87;;
13327;SDS011;6733;51.044;3.746;2023-07-24T08:38:28;3.77;;;3.47;;
13327;SDS011;6733;51.044;3.746;2023-07-24T08:41:01;4.33;;;3.00;;
13327;SDS011;6733;51.044;3.746;2023-07-24T08:43:34;3.80;;;3.40;;
13327;SDS011;6733;51.044;3.746;2023-07-24T08:46:02;3.40;;;3.10;;
13327;SDS011;6733;51.044;3.746;2023-07-24T08:48:30;6.03;;;3.30;;
13327;SDS011;6733;51.044;3.746;2023-07-24T08:51:11;4.07;;;3.70;;
13327;SDS011;6733;51.044;3.746;2023-07-24T08:53:39;3.43;;;3.13;;
13327;SDS011;6733;51.044;3.746;2023-07-24T08:56:07;3.43;;;3.13;;
13327;SDS011;6733;51.044;3.746;2023-07-24T08:58:35;3.80;;;3.50;;
13327;SDS011;6733;51.044;3.746;2023-07-24T09:01:02;3.83;;;3.53;;
13327;SDS011;6733;51.044;3.746;2023-07-24T09:03:30;3.67;;;3.37;;
13327;SDS011;6733;51.044;3.746;2023-07-24T09:05:56;5.30;;;3.73;;
13327;SDS011;6733;51.044;3.746;2023-07-24T09:08:29;5.13;;;3.47;;
13327;SDS011;6733;51.044;3.746;2023-07-24T09:10:57;3.97;;;3.20;;
13327;SDS011;6733;51.044;3.746;2023-07-24T09:13:24;4.03;;;3.40;;
13327;SDS011;6733;51.044;3.746;2023-07-24T09:15:50;3.70;;;3.30;;
13327;SDS011;6733;51.044;3.746;2023-07-24T09:18:16;3.43;;;3.13;;
13327;SDS011;6733;51.044;3.746;2023-07-24T09:20:44;3.97;;;3.03;;
13327;SDS011;6733;51.044;3.746;2023-07-24T09:23:10;5.40;;;3.77;;
13327;SDS011;6733;51.044;3.746;2023-07-24T09:25:38;4.68;;;3.65;;
13327;SDS011;6733;51.044;3.746;2023-07-24T09:28:24;6.03;;;3.80;;
13327;SDS011;6733;51.044;3.746;2023-07-24T09:30:57;4.65;;;4.20;;
13327;SDS011;6733;51.044;3.746;2023-07-24T09:33:38;4.25;;;3.88;;
13327;SDS011;6733;51.044;3.746;2023-07-24T09:36:07;6.75;;;3.90;;
13327;SDS011;6733;51.044;3.746;2023-07-24T09:38:35;5.32;;;4.78;;
13327;SDS011;6733;51.044;3.746;2023-07-24T09:41:02;5.30;;;4.80;;
13327;SDS011;6733;51.044;3.746;2023-07-24T09:43:29;6.18;;;4.68;;
13327;SDS011;6733;51.044;3.746;2023-07-24T09:45:56;6.38;;;4.60;;
13327;SDS011;6733;51.044;3.746;2023-07-24T09:48:23;6.03;;;4.05;;
13327;SDS011;6733;51.044;3.746;2023-07-24T09:50:54;5.10;;;3.92;;
13327;SDS011;6733;51.044;3.746;2023-07-24T09:56:04;5.20;;;3.75;;
13327;SDS011;6733;51.044;3.746;2023-07-24T09:58:32;6.35;;;4.32;;
13327;SDS011;6733;51.044;3.746;2023-07-24T10:01:00;4.25;;;3.55;;
13327;SDS011;6733;51.044;3.746;2023-07-24T10:03:35;3.70;;;3.38;;
13327;SDS011;6733;51.044;3.746;2023-07-24T10:06:08;3.55;;;2.97;;
13327;SDS011;6733;51.044;3.746;2023-07-24T10:08:38;4.43;;;2.78;;
13327;SDS011;6733;51.044;3.746;2023-07-24T10:11:05;3.67;;;3.33;;
13327;SDS011;6733;51.044;3.746;2023-07-24T10:13:32;3.97;;;3.30;;
13327;SDS011;6733;51.044;3.746;2023-07-24T10:16:02;3.63;;;2.90;;
13327;SDS011;6733;51.044;3.746;2023-07-24T10:18:32;4.57;;;3.35;;
13327;SDS011;6733;51.044;3.746;2023-07-24T10:21:06;4.65;;;3.17;;
13327;SDS011;6733;51.044;3.746;2023-07-24T10:23:33;5.05;;;3.60;;
13327;SDS011;6733;51.044;3.746;2023-07-24T10:26:07;4.22;;;3.28;;
13327;SDS011;6733;51.044;3.746;2023-07-24T10:28:34;3.80;;;3.40;;
13327;SDS011;6733;51.044;3.746;2023-07-24T10:31:05;4.55;;;3.08;;
13327;SDS011;6733;51.044;3.746;2023-07-24T10:33:34;3.45;;;3.00;;
13327;SDS011;6733;51.044;3.746;2023-07-24T10:36:07;4.00;;;3.10;;
13327;SDS011;6733;51.044;3.746;2023-07-24T10:38:39;3.95;;;3.22;;
13327;SDS011;6733;51.044;3.746;2023-07-24T10:41:08;5.40;;;3.50;;
13327;SDS011;6733;51.044;3.746;2023-07-24T10:43:45;4.00;;;3.25;;
13327;SDS011;6733;51.044;3.746;2023-07-24T10:46:13;3.30;;;2.92;;
13327;SDS011;6733;51.044;3.746;2023-07-24T10:48:47;4.57;;;3.03;;
13327;SDS011;6733;51.044;3.746;2023-07-24T10:51:15;4.03;;;3.40;;
13327;SDS011;6733;51.044;3.746;2023-07-24T10:53:48;3.95;;;3.15;;
13327;SDS011;6733;51.044;3.746;2023-07-24T10:56:15;3.15;;;2.88;;
13327;SDS011;6733;51.044;3.746;2023-07-24T10:58:42;4.72;;;3.58;;
13327;SDS011;6733;51.044;3.746;2023-07-24T11:01:09;4.13;;;3.30;;
13327;SDS011;6733;51.044;3.746;2023-07-24T11:03:36;4.95;;;3.50;;
13327;SDS011;6733;51.044;3.746;2023-07-24T11:06:03;3.85;;;3.42;;
13327;SDS011;6733;51.044;3.746;2023-07-24T11:08:30;4.28;;;3.10;;
13327;SDS011;6733;51.044;3.746;2023-07-24T11:10:57;3.60;;;3.30;;
13327;SDS011;6733;51.044;3.746;2023-07-24T11:13:25;6.15;;;3.70;;
13327;SDS011;6733;51.044;3.746;2023-07-24T11:15:53;3.20;;;2.85;;
13327;SDS011;6733;51.044;3.746;2023-07-24T11:18:20;3.83;;;3.42;;
13327;SDS011;6733;51.044;3.746;2023-07-24T11:20:49;4.53;;;4.13;;
13327;SDS011;6733;51.044;3.746;2023-07-24T11:23:16;5.38;;;3.58;;
13327;SDS011;6733;51.044;3.746;2023-07-24T11:25:43;5.30;;;4.10;;
13327;SDS011;6733;51.044;3.746;2023-07-24T11:28:10;4.10;;;3.45;;
13327;SDS011;6733;51.044;3.746;2023-07-24T11:30:37;5.72;;;3.97;;
13327;SDS011;6733;51.044;3.746;2023-07-24T11:33:04;5.57;;;3.78;;
13327;SDS011;6733;51.044;3.746;2023-07-24T11:35:33;6.03;;;3.85;;
13327;SDS011;6733;51.044;3.746;2023-07-24T11:38:01;4.38;;;4.00;;
13327;SDS011;6733;51.044;3.746;2023-07-24T11:40:34;4.95;;;3.85;;
13327;SDS011;6733;51.044;3.746;2023-07-24T11:43:04;6.53;;;3.60;;
13327;SDS011;6733;51.044;3.746;2023-07-24T11:45:43;4.80;;;4.03;;
13327;SDS011;6733;51.044;3.746;2023-07-24T11:48:10;5.75;;;3.83;;
13327;SDS011;6733;51.044;3.746;2023-07-24T11:50:41;6.00;;;3.90;;
13327;SDS011;6733;51.044;3.746;2023-07-24T11:53:18;4.07;;;3.20;;
13327;SDS011;6733;51.044;3.746;2023-07-24T11:55:44;6.20;;;3.97;;
13327;SDS011;6733;51.044;3.746;2023-07-24T11:58:13;5.78;;;4.53;;
13327;SDS011;6733;51.044;3.746;2023-07-24T12:00:42;6.90;;;4.35;;
13327;SDS011;6733;51.044;3.746;2023-07-24T12:03:08;6.45;;;4.72;;
13327;SDS011;6733;51.044;3.746;2023-07-24T12:05:41;5.80;;;4.28;;
13327;SDS011;6733;51.044;3.746;2023-07-24T12:08:09;7.13;;;4.47;;
13327;SDS011;6733;51.044;3.746;2023-07-24T12:10:37;5.33;;;4.27;;
13327;SDS011;6733;51.044;3.746;2023-07-24T12:13:04;6.07;;;4.13;;
13327;SDS011;6733;51.044;3.746;2023-07-24T12:15:31;7.77;;;4.13;;
13327;SDS011;6733;51.044;3.746;2023-07-24T12:17:59;5.17;;;3.97;;
13327;SDS011;6733;51.044;3.746;2023-07-24T12:20:26;4.87;;;4.00;;
13327;SDS011;6733;51.044;3.746;2023-07-24T12:22:53;5.57;;;4.30;;
13327;SDS011;6733;51.044;3.746;2023-07-24T12:25:19;7.07;;;4.40;;
13327;SDS011;6733;51.044;3.746;2023-07-24T12:27:46;4.57;;;3.93;;
13327;SDS011;6733;51.044;3.746;2023-07-24T12:30:13;4.20;;;3.80;;
13327;SDS011;6733;51.044;3.746;2023-07-24T12:32:39;6.55;;;3.90;;
13327;SDS011;6733;51.044;3.746;2023-07-24T12:35:07;7.93;;;4.00;;
13327;SDS011;6733;51.044;3.746;2023-07-24T12:37:33;5.13;;;4.13;;
13327;SDS011;6733;51.044;3.746;2023-07-24T12:40:00;4.20;;;3.50;;
13327;SDS011;6733;51.044;3.746;2023-07-24T12:42:26;4.60;;;3.33;;
13327;SDS011;6733;51.044;3.746;2023-07-24T12:44:52;3.58;;;2.97;;
13327;SDS011;6733;51.044;3.746;2023-07-24T12:47:18;3.47;;;2.80;;
13327;SDS011;6733;51.044;3.746;2023-07-24T12:49:45;4.82;;;3.47;;
13327;SDS011;6733;51.044;3.746;2023-07-24T12:52:11;4.82;;;4.00;;
13327;SDS011;6733;51.044;3.746;2023-07-24T12:54:37;3.97;;;3.33;;
13327;SDS011;6733;51.044;3.746;2023-07-24T12:57:03;4.72;;;2.90;;
13327;SDS011;6733;51.044;3.746;2023-07-24T12:59:30;5.00;;;3.08;;
13327;SDS011;6733;51.044;3.746;2023-07-24T13:01:56;3.67;;;3.00;;
13327;SDS011;6733;51.044;3.746;2023-07-24T13:04:22;4.40;;;3.00;;
13327;SDS011;6733;51.044;3.746;2023-07-24T13:06:49;6.15;;;3.80;;
13327;SDS011;6733;51.044;3.746;2023-07-24T13:09:17;4.50;;;3.20;;
13327;SDS011;6733;51.044;3.746;2023-07-24T13:11:44;4.03;;;3.63;;
13327;SDS011;6733;51.044;3.746;2023-07-24T13:14:12;6.93;;;3.73;;
13327;SDS011;6733;51.044;3.746;2023-07-24T13:16:38;5.20;;;3.80;;
13327;SDS011;6733;51.044;3.746;2023-07-24T13:19:04;4.87;;;3.57;;
13327;SDS011;6733;51.044;3.746;2023-07-24T13:21:30;5.30;;;4.33;;
13327;SDS011;6733;51.044;3.746;2023-07-24T13:23:56;15.57;;;6.60;;
13327;SDS011;6733;51.044;3.746;2023-07-24T13:26:23;15.47;;;6.33;;
13327;SDS011;6733;51.044;3.746;2023-07-24T13:28:49;17.07;;;8.20;;
13327;SDS011;6733;51.044;3.746;2023-07-24T13:31:16;15.00;;;7.60;;
13327;SDS011;6733;51.044;3.746;2023-07-24T13:33:44;10.13;;;7.70;;
13327;SDS011;6733;51.044;3.746;2023-07-24T13:36:10;10.70;;;7.27;;
13327;SDS011;6733;51.044;3.746;2023-07-24T13:38:36;12.13;;;7.93;;
13327;SDS011;6733;51.044;3.746;2023-07-24T13:41:03;11.93;;;7.47;;
13327;SDS011;6733;51.044;3.746;2023-07-24T13:43:30;10.03;;;7.80;;
13327;SDS011;6733;51.044;3.746;2023-07-24T13:45:57;11.07;;;7.50;;
13327;SDS011;6733;51.044;3.746;2023-07-24T13:48:24;12.73;;;8.70;;
13327;SDS011;6733;51.044;3.746;2023-07-24T13:50:52;12.20;;;8.57;;
13327;SDS011;6733;51.044;3.746;2023-07-24T13:53:19;15.27;;;8.40;;
13327;SDS011;6733;51.044;3.746;2023-07-24T13:55:45;11.17;;;8.40;;
13327;SDS011;6733;51.044;3.746;2023-07-24T13:58:11;12.83;;;9.60;;
13327;SDS011;6733;51.044;3.746;2023-07-24T14:00:37;14.47;;;9.80;;
13327;SDS011;6733;51.044;3.746;2023-07-24T14:03:03;16.07;;;10.57;;
13327;SDS011;6733;51.044;3.746;2023-07-24T14:05:29;15.97;;;11.13;;
13327;SDS011;6733;51.044;3.746;2023-07-24T14:07:55;13.63;;;9.87;;
13327;SDS011;6733;51.044;3.746;2023-07-24T14:10:22;11.87;;;9.43;;
13327;SDS011;6733;51.044;3.746;2023-07-24T14:12:48;14.87;;;10.30;;
13327;SDS011;6733;51.044;3.746;2023-07-24T14:15:14;18.27;;;11.27;;
13327;SDS011;6733;51.044;3.746;2023-07-24T14:17:40;13.93;;;11.17;;
13327;SDS011;6733;51.044;3.746;2023-07-24T14:20:06;15.63;;;11.87;;
13327;SDS011;6733;51.044;3.746;2023-07-24T14:22:33;15.03;;;13.30;;
13327;SDS011;6733;51.044;3.746;2023-07-24T14:24:59;14.47;;;12.40;;
13327;SDS011;6733;51.044;3.746;2023-07-24T14:27:25;11.20;;;9.20;;
13327;SDS011;6733;51.044;3.746;2023-07-24T14:29:52;10.83;;;7.90;;
13327;SDS011;6733;51.044;3.746;2023-07-24T14:32:18;8.10;;;6.63;;
13327;SDS011;6733;51.044;3.746;2023-07-24T14:34:49;8.37;;;4.73;;
13327;SDS011;6733;51.044;3.746;2023-07-24T14:37:16;6.35;;;3.88;;
13327;SDS011;6733;51.044;3.746;2023-07-24T14:39:42;5.07;;;3.83;;
13327;SDS011;6733;51.044;3.746;2023-07-24T14:42:10;4.60;;;3.28;;
13327;SDS011;6733;51.044;3.746;2023-07-24T14:44:36;7.22;;;3.97;;
13327;SDS011;6733;51.044;3.746;2023-07-24T14:47:03;3.78;;;3.33;;
13327;SDS011;6733;51.044;3.746;2023-07-24T14:49:29;4.80;;;3.63;;
13327;SDS011;6733;51.044;3.746;2023-07-24T14:51:55;5.53;;;4.00;;
13327;SDS011;6733;51.044;3.746;2023-07-24T14:54:22;4.25;;;3.90;;
13327;SDS011;6733;51.044;3.746;2023-07-24T14:56:49;3.97;;;3.65;;
13327;SDS011;6733;51.044;3.746;2023-07-24T14:59:15;4.78;;;3.83;;
13327;SDS011;6733;51.044;3.746;2023-07-24T15:01:41;5.28;;;4.18;;
13327;SDS011;6733;51.044;3.746;2023-07-24T15:04:08;6.60;;;3.63;;
13327;SDS011;6733;51.044;3.746;2023-07-24T15:06:34;5.90;;;3.00;;